createdAt,value
2023-01-20T00:49:05.831Z,18.95
2023-01-20T00:58:35.934Z,19.23
2023-01-20T01:09:14.511Z,18.63
2023-01-20T01:28:21.880Z,16.98
2023-01-20T01:33:31.769Z,18.50
2023-01-20T01:36:29.453Z,17.15
2023-01-20T01:42:15.108Z,17.65
2023-01-20T01:45:26.329Z,17.33
2023-01-20T01:48:05.393Z,17.38
2023-01-20T01:50:43.469Z,16.52
2023-01-20T01:53:12.625Z,15.77
2023-01-20T01:55:53.531Z,17.48
2023-01-20T01:58:29.085Z,17.05
2023-01-20T02:00:57.906Z,16.33
2023-01-20T02:03:29.677Z,15.95
2023-01-20T02:05:58.496Z,16.40
2023-01-20T02:08:27.374Z,15.10
2023-01-20T02:10:57.194Z,15.38
2023-01-20T02:13:25.569Z,14.80
2023-01-20T02:16:04.560Z,15.05
2023-01-20T02:18:45.764Z,15.43
2023-01-20T02:21:51.214Z,14.98
2023-01-20T02:24:44.494Z,15.32
2023-01-20T02:27:24.156Z,15.45
2023-01-20T02:30:30.254Z,16.30
2023-01-20T02:33:07.708Z,16.85
2023-01-20T02:35:43.587Z,17.13
2023-01-20T02:38:18.354Z,17.42
2023-01-20T02:40:54.927Z,17.25
2023-01-20T02:43:30.380Z,17.23
2023-01-20T02:46:06.253Z,17.58
2023-01-20T02:48:44.488Z,18.92
2023-01-20T02:51:17.612Z,19.25
2023-01-20T02:53:49.904Z,18.63
2023-01-20T02:56:19.820Z,19.92
2023-01-20T02:58:52.193Z,20.80
2023-01-20T03:01:26.641Z,21.98
2023-01-20T03:04:01.427Z,23.70
2023-01-20T03:06:34.658Z,22.23
2023-01-20T03:09:08.660Z,23.17
2023-01-20T03:11:44.902Z,23.65
2023-01-20T03:14:15.485Z,24.17
2023-01-20T03:16:44.154Z,24.13
2023-01-20T03:19:13.725Z,26.58
2023-01-20T03:21:42.420Z,25.67
2023-01-20T03:24:10.692Z,24.67
2023-01-20T03:26:39.934Z,24.77
2023-01-20T03:29:11.487Z,25.27
2023-01-20T03:31:42.492Z,28.25
2023-01-20T03:34:16.183Z,25.90
2023-01-20T03:36:48.759Z,26.67
2023-01-20T03:39:18.054Z,26.98
2023-01-20T03:41:58.134Z,25.85
2023-01-20T03:44:35.144Z,26.15
2023-01-20T03:47:09.954Z,27.38
2023-01-20T03:49:47.531Z,27.20
2023-01-20T03:52:24.001Z,29.95
2023-01-20T03:55:17.470Z,27.75
2023-01-20T03:57:51.053Z,31.45
2023-01-20T04:00:27.218Z,31.40
2023-01-20T04:03:00.416Z,26.83
2023-01-20T04:05:31.062Z,27.98
2023-01-20T04:08:06.611Z,25.05
2023-01-20T04:10:38.287Z,27.73
2023-01-20T04:13:07.381Z,27.42
2023-01-20T04:15:41.383Z,27.05
2023-01-20T04:18:14.742Z,27.88
2023-01-20T04:20:45.984Z,30.73
2023-01-20T04:23:22.420Z,30.25
2023-01-20T04:25:50.764Z,30.60
2023-01-20T04:28:19.006Z,30.30
2023-01-20T04:30:47.590Z,30.85
2023-01-20T04:33:15.891Z,30.30
2023-01-20T04:35:45.592Z,31.35
2023-01-20T04:38:13.768Z,36.30
2023-01-20T04:40:41.986Z,37.20
2023-01-20T04:43:12.349Z,36.00
2023-01-20T04:45:42.441Z,34.90
2023-01-20T04:48:11.701Z,33.33
2023-01-20T04:50:40.847Z,32.20
2023-01-20T04:53:13.661Z,34.35
2023-01-20T04:55:41.927Z,32.30
2023-01-20T04:58:11.028Z,34.58
2023-01-20T05:00:39.507Z,35.47
2023-01-20T05:03:08.221Z,36.63
2023-01-20T05:05:36.489Z,37.03
2023-01-20T05:08:05.486Z,38.90
2023-01-20T05:10:35.575Z,37.55
2023-01-20T05:13:03.796Z,38.20
2023-01-20T05:15:32.109Z,38.75
2023-01-20T05:18:00.409Z,38.33
2023-01-20T05:20:28.819Z,38.67
2023-01-20T05:22:58.854Z,36.40
2023-01-20T05:25:28.810Z,38.33
2023-01-20T05:28:01.947Z,38.05
2023-01-20T05:30:30.236Z,36.05
2023-01-20T05:33:01.396Z,36.58
2023-01-20T05:35:32.645Z,37.30
2023-01-20T05:38:03.515Z,38.38
2023-01-20T05:40:31.934Z,35.38
2023-01-20T05:43:05.182Z,37.15
2023-01-20T05:45:33.717Z,37.15
2023-01-20T05:48:03.338Z,35.15
2023-01-20T05:50:31.894Z,40.97
2023-01-20T05:53:01.015Z,37.60
2023-01-20T05:55:32.331Z,35.45
2023-01-20T05:58:05.684Z,35.78
2023-01-20T06:00:34.299Z,35.67
2023-01-20T06:03:03.503Z,33.30
2023-01-20T06:05:34.973Z,33.10
2023-01-20T06:08:03.392Z,33.33
2023-01-20T06:10:31.848Z,34.85
2023-01-20T06:13:14.945Z,33.28
2023-01-20T06:15:45.073Z,32.43
2023-01-20T06:18:14.571Z,32.95
2023-01-20T06:20:43.058Z,34.53
2023-01-20T06:23:11.238Z,32.58
2023-01-20T06:25:42.667Z,33.40
2023-01-20T06:28:13.956Z,34.15
2023-01-20T06:30:43.632Z,33.53
2023-01-20T06:33:22.792Z,29.83
2023-01-20T06:35:54.924Z,30.88
2023-01-20T06:38:35.552Z,31.15
2023-01-20T06:41:17.022Z,30.15
2023-01-20T06:43:51.655Z,31.20
2023-01-20T06:46:33.720Z,30.17
2023-01-20T11:26:28.440Z,16.75
2023-01-20T11:28:58.921Z,16.80
2023-01-20T11:31:43.591Z,16.40
2023-01-20T11:34:24.159Z,16.83
2023-01-20T11:37:11.754Z,16.98
2023-01-20T11:39:45.697Z,16.92
2023-01-20T11:42:20.323Z,16.83
2023-01-20T11:44:54.453Z,16.65
2023-01-20T11:48:18.398Z,18.13
2023-01-20T12:02:03.616Z,16.20
2023-01-20T12:05:48.892Z,17.25
2023-01-20T12:08:23.000Z,12.93
2023-01-20T12:11:13.889Z,20.40
2023-01-20T12:17:48.359Z,18.95
2023-01-20T12:20:56.035Z,19.55
2023-01-20T12:23:34.124Z,17.38
2023-01-20T12:26:07.285Z,18.25
2023-01-20T12:28:40.486Z,16.75
2023-01-20T12:31:11.848Z,17.92
2023-01-20T12:34:02.747Z,17.45
2023-01-20T12:36:59.239Z,20.05
2023-01-20T12:39:38.778Z,19.33
2023-01-20T12:42:49.225Z,17.85
2023-01-20T12:45:28.054Z,18.13
2023-01-20T12:48:20.333Z,15.93
2023-01-20T12:51:20.669Z,14.77
2023-01-20T12:58:13.041Z,15.48
2023-01-20T13:33:29.379Z,9.57
2023-01-20T13:36:18.398Z,8.80
2023-01-20T13:38:52.531Z,11.30
2023-01-20T13:41:51.603Z,11.02
2023-01-20T13:44:44.544Z,10.32
